createdAt,value
2023-06-17T00:01:28.894Z,75.39
2023-06-17T00:03:55.598Z,75.61
2023-06-17T00:06:22.136Z,75.31
2023-06-17T00:08:49.627Z,75.08
2023-06-17T00:11:16.088Z,75.62
2023-06-17T00:13:42.646Z,75.59
2023-06-17T00:16:10.177Z,75.18
2023-06-17T00:18:37.218Z,75.20
2023-06-17T00:21:03.875Z,75.36
2023-06-17T00:23:30.403Z,75.82
2023-06-17T00:25:56.906Z,75.26
2023-06-17T00:28:23.373Z,75.82
2023-06-17T00:30:49.835Z,75.97
2023-06-17T00:33:16.637Z,75.95
2023-06-17T00:35:43.189Z,75.93
2023-06-17T00:38:09.822Z,75.08
2023-06-17T00:40:36.420Z,74.92
2023-06-17T00:43:02.934Z,75.47
2023-06-17T00:45:29.417Z,75.13
2023-06-17T00:47:56.257Z,75.07
2023-06-17T00:50:24.000Z,75.22
2023-06-17T00:52:53.420Z,74.74
2023-06-17T00:55:19.924Z,74.83
2023-06-17T00:57:48.476Z,75.29
2023-06-17T01:00:16.168Z,75.27
2023-06-17T01:02:45.668Z,75.25
2023-06-17T01:05:14.280Z,75.88
2023-06-17T01:07:47.443Z,75.63
2023-06-17T01:10:33.937Z,75.65
2023-06-17T01:13:01.894Z,75.51
2023-06-17T01:15:28.418Z,74.78
2023-06-17T01:17:56.180Z,75.29
2023-06-17T01:20:24.199Z,75.10
2023-06-17T01:22:53.386Z,75.20
2023-06-17T01:25:21.735Z,75.13
2023-06-17T01:27:55.375Z,75.10
2023-06-17T01:30:22.266Z,75.25
2023-06-17T01:33:10.682Z,74.80
2023-06-17T01:35:38.666Z,74.61
2023-06-17T01:38:25.813Z,75.35
2023-06-17T01:40:58.745Z,75.74
2023-06-17T01:43:26.707Z,75.57
2023-06-17T01:45:54.300Z,75.24
2023-06-17T01:48:20.789Z,75.55
2023-06-17T01:50:47.266Z,74.68
2023-06-17T01:53:13.702Z,75.04
2023-06-17T01:55:40.398Z,75.51
2023-06-17T01:58:06.863Z,74.99
2023-06-17T02:00:33.332Z,75.65
2023-06-17T02:02:59.877Z,75.15
2023-06-17T02:05:26.377Z,74.95
2023-06-17T02:07:53.618Z,74.82
2023-06-17T02:10:20.376Z,74.15
2023-06-17T02:12:47.113Z,74.10
2023-06-17T02:15:13.692Z,74.04
2023-06-17T02:17:40.212Z,73.36
2023-06-17T02:20:07.414Z,73.60
2023-06-17T02:22:34.053Z,73.86
2023-06-17T02:25:01.529Z,73.96
2023-06-17T02:27:28.066Z,73.94
2023-06-17T02:29:54.559Z,74.36
2023-06-17T02:32:21.379Z,73.83
2023-06-17T02:34:50.495Z,73.68
2023-06-17T02:37:16.988Z,74.02
2023-06-17T02:39:43.586Z,74.18
2023-06-17T02:42:10.295Z,74.23
2023-06-17T02:44:37.052Z,74.71
2023-06-17T02:47:03.982Z,74.77
2023-06-17T02:49:30.485Z,74.58
2023-06-17T02:51:56.957Z,75.20
2023-06-17T02:54:23.420Z,74.70
2023-06-17T02:56:49.892Z,74.26
2023-06-17T02:59:16.683Z,74.18
2023-06-17T03:01:44.294Z,74.47
2023-06-17T03:04:13.881Z,75.06
2023-06-17T03:06:42.137Z,74.37
2023-06-17T03:09:09.660Z,75.05
2023-06-17T03:11:36.910Z,74.35
2023-06-17T03:14:04.174Z,74.41
2023-06-17T03:16:32.790Z,74.89
2023-06-17T03:19:00.147Z,74.56
2023-06-17T03:21:30.725Z,74.72
2023-06-17T03:24:01.886Z,74.64
2023-06-17T03:26:28.824Z,74.99
2023-06-17T03:28:55.324Z,74.64
2023-06-17T03:31:22.823Z,75.28
2023-06-17T03:33:52.273Z,74.71
2023-06-17T03:36:19.459Z,74.98
2023-06-17T03:38:46.512Z,74.57
2023-06-17T03:41:13.094Z,73.98
2023-06-17T03:43:39.564Z,73.79
2023-06-17T03:46:06.024Z,73.76
2023-06-17T03:48:32.574Z,73.96
2023-06-17T03:50:59.030Z,74.49
2023-06-17T03:53:25.925Z,74.59
2023-06-17T03:55:52.391Z,74.58
2023-06-17T03:58:19.161Z,73.95
2023-06-17T04:00:46.019Z,74.66
2023-06-17T04:03:12.716Z,74.28
2023-06-17T04:05:40.504Z,74.47
2023-06-17T04:08:07.593Z,75.02
2023-06-17T04:10:34.130Z,73.97
2023-06-17T04:13:00.713Z,73.82
2023-06-17T04:15:27.174Z,74.79
2023-06-17T04:17:56.084Z,73.88
2023-06-17T04:20:26.623Z,73.39
2023-06-17T04:22:53.184Z,73.69
2023-06-17T04:25:22.017Z,73.48
2023-06-17T04:27:54.461Z,73.76
2023-06-17T04:30:21.430Z,73.49
2023-06-17T04:32:48.088Z,73.85
2023-06-17T04:35:14.592Z,74.48
2023-06-17T04:37:41.459Z,74.58
2023-06-17T04:40:11.775Z,74.59
2023-06-17T04:42:41.691Z,73.89
2023-06-17T04:45:17.457Z,73.65
2023-06-17T04:47:45.781Z,74.33
2023-06-17T04:50:13.713Z,74.16
2023-06-17T04:52:44.724Z,74.13
2023-06-17T04:55:12.883Z,73.78
2023-06-17T04:57:39.302Z,74.15
2023-06-17T05:00:06.722Z,74.11
2023-06-17T05:02:33.294Z,73.08
2023-06-17T05:04:59.719Z,73.84
2023-06-17T05:07:26.172Z,73.05
2023-06-17T05:09:52.616Z,72.47
2023-06-17T05:12:19.048Z,73.10
2023-06-17T05:14:45.528Z,73.37
2023-06-17T05:17:12.018Z,73.40
2023-06-17T05:20:04.516Z,73.33
2023-06-17T05:26:21.911Z,72.24
2023-06-17T05:36:26.819Z,72.87
2023-06-17T05:38:53.526Z,72.45
2023-06-17T05:41:20.109Z,72.30
2023-06-17T05:43:50.203Z,72.66
2023-06-17T05:46:17.042Z,73.11
2023-06-17T05:48:43.533Z,72.72
2023-06-17T05:51:09.972Z,72.27
2023-06-17T05:53:36.413Z,72.68
2023-06-17T05:56:02.894Z,72.99
2023-06-17T05:58:29.356Z,73.00
2023-06-17T06:00:55.881Z,72.33
2023-06-17T06:03:22.398Z,72.46
2023-06-17T06:05:48.887Z,72.40
2023-06-17T06:08:15.398Z,72.42
2023-06-17T06:10:41.869Z,72.13
2023-06-17T06:13:09.715Z,72.27
2023-06-17T06:15:36.184Z,72.75
2023-06-17T06:18:02.764Z,72.16
2023-06-17T06:20:30.040Z,71.78
2023-06-17T06:22:56.558Z,72.26
2023-06-17T06:25:23.021Z,72.48
2023-06-17T06:27:51.484Z,72.39
2023-06-17T06:30:18.054Z,70.59
2023-06-17T06:32:44.555Z,70.67
2023-06-17T06:35:11.274Z,71.01
2023-06-17T06:37:37.735Z,71.06
2023-06-17T06:40:06.486Z,70.61
2023-06-17T06:42:33.088Z,71.47
2023-06-17T06:44:59.588Z,70.52
2023-06-17T06:47:26.135Z,71.27
2023-06-17T06:49:52.688Z,70.78
2023-06-17T06:52:19.158Z,69.88
2023-06-17T06:55:00.727Z,70.67
2023-06-17T06:57:27.201Z,70.40
2023-06-17T06:59:53.631Z,69.49
2023-06-17T07:02:35.254Z,68.85
2023-06-17T07:05:02.477Z,69.31
2023-06-17T07:07:28.949Z,69.31
2023-06-17T07:09:55.429Z,69.23
2023-06-17T07:12:22.035Z,68.79
2023-06-17T07:14:48.509Z,69.11
2023-06-17T07:17:15.057Z,69.14
2023-06-17T07:19:41.504Z,68.83
2023-06-17T07:22:08.864Z,68.58
2023-06-17T07:24:35.463Z,67.13
2023-06-17T07:27:01.984Z,66.49
2023-06-17T07:29:28.478Z,67.32
2023-06-17T07:31:54.980Z,66.35
2023-06-17T07:34:21.458Z,66.39
2023-06-17T07:36:53.395Z,66.76
2023-06-17T07:39:21.194Z,66.50
2023-06-17T07:41:47.652Z,66.43
2023-06-17T07:44:14.088Z,66.79
2023-06-17T07:46:40.588Z,66.00
2023-06-17T07:49:07.067Z,65.77
2023-06-17T07:51:33.531Z,65.78
2023-06-17T07:53:59.976Z,65.94
2023-06-17T07:56:28.631Z,65.85
2023-06-17T07:58:55.124Z,66.15
2023-06-17T08:01:21.906Z,65.87
2023-06-17T08:03:48.460Z,66.46
2023-06-17T08:06:15.170Z,66.13
2023-06-17T08:08:42.219Z,65.34
2023-06-17T08:11:08.929Z,65.77
2023-06-17T08:13:35.384Z,64.61
2023-06-17T08:16:02.276Z,64.32
2023-06-17T08:18:28.752Z,65.02
2023-06-17T08:20:55.337Z,64.32
2023-06-17T08:23:21.791Z,64.34
2023-06-17T08:25:50.419Z,65.08
2023-06-17T08:28:16.863Z,65.23
2023-06-17T08:30:43.375Z,64.98
2023-06-17T08:33:09.864Z,64.24
2023-06-17T08:35:36.379Z,63.76
2023-06-17T08:38:02.962Z,63.70
2023-06-17T08:40:30.196Z,63.23
2023-06-17T08:43:03.967Z,62.86
2023-06-17T08:45:30.991Z,61.63
2023-06-17T08:47:58.734Z,61.30
2023-06-17T08:50:26.035Z,63.14
2023-06-17T08:52:55.090Z,62.38
2023-06-17T08:55:21.905Z,61.98
2023-06-17T08:57:51.982Z,62.48
2023-06-17T09:00:19.090Z,62.05
2023-06-17T09:02:46.919Z,62.54
2023-06-17T09:05:13.825Z,63.07
2023-06-17T09:07:41.012Z,61.11
2023-06-17T09:10:09.624Z,61.54
2023-06-17T09:12:39.975Z,61.98
2023-06-17T09:15:15.843Z,60.61
2023-06-17T09:17:43.755Z,60.85
2023-06-17T09:20:12.069Z,59.87
2023-06-17T09:22:43.563Z,60.36
2023-06-17T09:25:15.405Z,60.88
2023-06-17T09:28:15.189Z,61.55
2023-06-17T09:30:44.463Z,60.13
2023-06-17T09:33:19.138Z,59.52
2023-06-17T09:35:46.008Z,59.18
2023-06-17T09:38:16.574Z,59.46
2023-06-17T09:40:43.147Z,59.28
2023-06-17T09:43:26.605Z,58.36
2023-06-17T09:45:56.520Z,58.92
2023-06-17T09:48:25.820Z,58.55
2023-06-17T09:50:58.895Z,59.54
2023-06-17T09:53:30.234Z,58.75
2023-06-17T09:55:58.368Z,59.03
2023-06-17T09:58:30.242Z,58.25
2023-06-17T10:01:01.706Z,58.16
2023-06-17T10:03:28.698Z,58.25
2023-06-17T10:06:14.427Z,58.29
2023-06-17T10:08:43.375Z,57.65
2023-06-17T10:11:11.036Z,58.10
2023-06-17T10:13:38.090Z,57.51
2023-06-17T10:16:06.058Z,57.86
2023-06-17T10:18:34.657Z,55.58
2023-06-17T10:21:01.635Z,55.63
2023-06-17T10:23:28.830Z,55.51
2023-06-17T10:25:55.864Z,56.16
2023-06-17T10:28:22.496Z,56.08
2023-06-17T10:30:51.330Z,56.25
2023-06-17T10:33:26.946Z,55.47
2023-06-17T10:36:07.056Z,56.39
2023-06-17T10:38:35.275Z,54.36
2023-06-17T10:41:02.675Z,55.18
2023-06-17T10:43:36.914Z,55.41
2023-06-17T10:46:03.476Z,55.06
2023-06-17T10:48:31.590Z,54.77
2023-06-17T10:51:03.445Z,54.61
2023-06-17T10:53:33.304Z,55.29
2023-06-17T10:56:01.538Z,54.70
2023-06-17T10:58:32.666Z,53.69
2023-06-17T11:01:00.510Z,53.72
2023-06-17T11:03:27.490Z,54.01
2023-06-17T11:05:55.077Z,53.37
2023-06-17T11:08:21.606Z,52.77
2023-06-17T11:10:48.112Z,52.36
2023-06-17T11:13:14.666Z,54.45
2023-06-17T11:15:41.128Z,53.13
2023-06-17T11:18:09.166Z,52.04
2023-06-17T11:20:36.276Z,52.12
2023-06-17T11:23:06.164Z,51.86
2023-06-17T11:25:44.488Z,52.08
2023-06-17T11:28:12.770Z,51.13
2023-06-17T11:30:41.480Z,50.98
2023-06-17T11:33:09.219Z,51.00
2023-06-17T11:35:36.297Z,49.97
2023-06-17T11:38:03.346Z,50.33
2023-06-17T11:40:29.775Z,51.03
2023-06-17T11:42:58.496Z,51.18
2023-06-17T11:45:25.929Z,49.98
2023-06-17T11:47:52.424Z,49.06
2023-06-17T11:50:19.944Z,48.53
2023-06-17T11:52:57.739Z,45.77
2023-06-17T11:55:34.485Z,45.82
2023-06-17T11:58:02.708Z,43.83
2023-06-17T12:00:30.596Z,42.15
2023-06-17T12:03:00.323Z,40.61
2023-06-17T12:05:28.256Z,38.79
2023-06-17T12:07:57.906Z,39.18
2023-06-17T12:10:24.794Z,38.17
2023-06-17T12:12:51.878Z,36.92
2023-06-17T12:18:10.493Z,35.73
2023-06-17T12:20:40.536Z,34.64
2023-06-17T12:23:07.647Z,32.36
2023-06-17T12:25:35.284Z,31.43
2023-06-17T12:28:06.558Z,31.33
2023-06-17T12:30:34.709Z,32.54
2023-06-17T12:33:01.552Z,31.77
2023-06-17T12:35:28.460Z,31.29
2023-06-17T12:37:56.351Z,29.54
2023-06-17T12:40:22.929Z,30.03
2023-06-17T12:42:49.407Z,28.34
2023-06-17T12:45:16.145Z,29.09
2023-06-17T12:47:42.685Z,27.38
2023-06-17T12:50:10.251Z,27.91
2023-06-17T12:52:37.169Z,27.85
2023-06-17T12:55:06.072Z,27.63
2023-06-17T12:57:32.981Z,27.26
2023-06-17T13:00:01.132Z,27.01
2023-06-17T13:02:27.689Z,26.82
2023-06-17T13:04:55.031Z,26.89
2023-06-17T13:07:21.567Z,27.19
2023-06-17T13:09:48.008Z,27.59
2023-06-17T13:12:14.818Z,28.12
2023-06-17T13:14:41.306Z,28.92
2023-06-17T13:17:07.974Z,29.39
2023-06-17T13:19:34.599Z,31.03
2023-06-17T13:22:01.039Z,31.22
2023-06-17T13:24:27.552Z,30.43
2023-06-17T13:26:54.122Z,29.48
2023-06-17T13:29:22.424Z,29.18
2023-06-17T13:31:49.242Z,28.05
2023-06-17T13:34:15.790Z,28.21
2023-06-17T13:36:46.037Z,27.36
2023-06-17T13:39:12.882Z,28.45
2023-06-17T13:41:39.331Z,27.45
2023-06-17T13:44:06.889Z,27.58
2023-06-17T13:46:33.405Z,30.22
2023-06-17T13:49:00.201Z,31.89
2023-06-17T13:51:26.828Z,33.43
2023-06-17T13:53:53.320Z,33.62
2023-06-17T13:56:19.829Z,32.97
2023-06-17T13:58:46.302Z,30.69
2023-06-17T14:01:12.797Z,30.26
2023-06-17T14:03:39.357Z,27.82
2023-06-17T14:06:06.686Z,27.53
2023-06-17T14:08:33.310Z,28.09
2023-06-17T14:10:59.842Z,28.63
2023-06-17T14:13:26.269Z,29.86
2023-06-17T14:15:52.775Z,30.31
2023-06-17T14:18:19.280Z,29.49
2023-06-17T14:20:45.774Z,29.38
2023-06-17T14:23:12.385Z,29.86
2023-06-17T14:25:38.867Z,30.12
2023-06-17T14:28:05.468Z,30.49
2023-06-17T14:30:31.965Z,28.10
2023-06-17T14:32:58.660Z,29.45
2023-06-17T14:35:25.125Z,30.73
2023-06-17T14:37:51.601Z,29.08
2023-06-17T14:40:18.407Z,28.75
2023-06-17T14:42:45.961Z,28.64
2023-06-17T14:45:13.811Z,26.85
2023-06-17T14:47:40.927Z,27.43
2023-06-17T14:50:09.558Z,27.38
2023-06-17T14:52:36.040Z,25.85
2023-06-17T14:55:02.479Z,26.11
2023-06-17T14:57:29.412Z,26.98
2023-06-17T14:59:56.898Z,28.69
2023-06-17T15:02:43.310Z,30.01
2023-06-17T15:05:09.969Z,30.18
2023-06-17T15:07:36.407Z,30.20
2023-06-17T15:10:04.260Z,29.99
2023-06-17T15:12:30.922Z,29.85
2023-06-17T15:14:57.466Z,29.42
2023-06-17T15:17:23.904Z,29.54
2023-06-17T15:19:50.357Z,29.40
2023-06-17T15:22:16.851Z,28.46
2023-06-17T15:24:43.330Z,29.09
2023-06-17T15:27:09.829Z,28.01
2023-06-17T15:29:36.325Z,28.63
2023-06-17T15:32:02.918Z,27.99
2023-06-17T15:34:29.405Z,27.95
2023-06-17T15:36:55.862Z,27.12
2023-06-17T15:39:25.440Z,27.14
2023-06-17T15:41:53.097Z,27.30
2023-06-17T15:44:20.528Z,27.20
2023-06-17T15:46:47.045Z,27.30
2023-06-17T15:49:13.691Z,27.33
2023-06-17T15:51:40.331Z,28.38
2023-06-17T15:54:06.977Z,27.75
2023-06-17T15:56:35.725Z,27.23
2023-06-17T15:59:02.475Z,27.94
2023-06-17T16:01:29.379Z,27.56
2023-06-17T16:03:57.654Z,28.93
2023-06-17T16:06:24.136Z,29.46
2023-06-17T16:08:52.133Z,30.14
2023-06-17T16:11:19.524Z,29.16
2023-06-17T16:13:46.152Z,29.60
2023-06-17T16:16:12.650Z,29.65
2023-06-17T16:18:39.616Z,29.64
2023-06-17T16:21:06.075Z,30.32
2023-06-17T16:23:32.565Z,30.53
2023-06-17T16:25:59.997Z,30.84
2023-06-17T16:28:26.446Z,29.00
2023-06-17T16:30:52.922Z,29.69
2023-06-17T16:33:19.439Z,29.95
2023-06-17T16:35:45.893Z,29.68
2023-06-17T16:38:12.383Z,31.72
2023-06-17T16:40:38.832Z,32.16
2023-06-17T16:43:05.384Z,32.67
2023-06-17T16:45:31.881Z,33.48
2023-06-17T16:47:58.476Z,33.91
2023-06-17T16:50:25.089Z,34.96
2023-06-17T16:52:51.706Z,36.60
2023-06-17T16:55:18.161Z,37.45
2023-06-17T16:57:44.620Z,38.39
2023-06-17T17:00:12.463Z,38.71
2023-06-17T17:02:39.115Z,39.36
2023-06-17T17:05:06.079Z,40.07
2023-06-17T17:07:32.547Z,42.22
2023-06-17T17:09:59.109Z,42.03
2023-06-17T17:12:25.615Z,42.65
2023-06-17T17:14:52.370Z,43.55
2023-06-17T17:17:18.907Z,43.47
2023-06-17T17:19:45.609Z,43.31
2023-06-17T17:22:12.111Z,44.95
2023-06-17T17:24:39.017Z,45.27
2023-06-17T17:27:07.729Z,44.71
2023-06-17T17:29:35.199Z,45.48
2023-06-17T17:32:01.725Z,45.69
2023-06-17T17:34:28.227Z,46.42
2023-06-17T17:36:54.691Z,46.74
2023-06-17T17:39:21.270Z,46.40
2023-06-17T17:41:47.758Z,47.22
2023-06-17T17:44:14.285Z,46.93
2023-06-17T17:46:41.643Z,47.50
2023-06-17T17:49:09.572Z,48.00
2023-06-17T17:51:36.177Z,47.91
2023-06-17T17:54:02.630Z,47.28
2023-06-17T17:56:29.169Z,47.84
2023-06-17T17:58:55.708Z,47.94
2023-06-17T18:01:22.230Z,47.55
2023-06-17T18:03:48.736Z,46.89
2023-06-17T18:06:15.440Z,47.18
2023-06-17T18:08:41.882Z,46.87
2023-06-17T18:11:08.416Z,47.13
2023-06-17T18:13:34.870Z,47.86
2023-06-17T18:16:01.348Z,48.21
2023-06-17T18:18:28.033Z,48.84
2023-06-17T18:20:54.524Z,48.82
2023-06-17T18:23:21.219Z,49.33
2023-06-17T18:25:47.693Z,49.73
2023-06-17T18:28:14.357Z,50.18
2023-06-17T18:30:41.132Z,49.88
2023-06-17T18:33:07.682Z,50.52
2023-06-17T18:35:34.252Z,50.94
2023-06-17T18:38:00.741Z,51.02
2023-06-17T18:40:27.244Z,51.82
2023-06-17T18:42:53.740Z,51.61
2023-06-17T18:45:20.217Z,51.72
2023-06-17T18:47:47.437Z,52.34
2023-06-17T18:50:13.992Z,52.10
2023-06-17T18:52:41.703Z,52.54
2023-06-17T18:55:08.933Z,52.65
2023-06-17T18:57:35.636Z,52.59
2023-06-17T19:00:02.102Z,53.04
2023-06-17T19:02:29.757Z,53.28
2023-06-17T19:04:56.836Z,53.23
2023-06-17T19:07:23.309Z,53.94
2023-06-17T19:09:51.159Z,53.99
2023-06-17T19:12:17.703Z,54.58
2023-06-17T19:14:44.212Z,54.65
2023-06-17T19:17:10.832Z,54.85
2023-06-17T19:19:37.287Z,54.93
2023-06-17T19:22:03.936Z,55.32
2023-06-17T19:24:30.517Z,55.76
2023-06-17T19:26:57.062Z,56.77
2023-06-17T19:29:23.504Z,56.19
2023-06-17T19:31:49.938Z,56.35
2023-06-17T19:34:17.326Z,56.76
2023-06-17T19:36:43.770Z,57.15
2023-06-17T19:39:10.386Z,57.63
2023-06-17T19:41:36.886Z,57.68
2023-06-17T19:44:05.958Z,57.94
2023-06-17T19:46:32.512Z,58.37
2023-06-17T19:48:58.997Z,58.56
2023-06-17T19:51:25.493Z,58.65
2023-06-17T19:53:51.975Z,58.62
2023-06-17T19:56:19.486Z,58.99
2023-06-17T19:58:46.244Z,58.86
2023-06-17T20:01:12.769Z,59.53
2023-06-17T20:03:39.587Z,59.90
2023-06-17T20:06:06.094Z,59.72
2023-06-17T20:08:33.025Z,60.03
2023-06-17T20:10:59.544Z,60.53
2023-06-17T20:13:25.993Z,61.02
2023-06-17T20:15:52.794Z,61.31
2023-06-17T20:18:19.330Z,61.87
2023-06-17T20:20:45.929Z,62.23
2023-06-17T20:23:12.973Z,62.53
2023-06-17T20:25:39.473Z,62.23
2023-06-17T20:28:06.161Z,62.98
2023-06-17T20:30:32.638Z,62.92
2023-06-17T20:32:59.111Z,63.19
2023-06-17T20:35:25.679Z,63.56
2023-06-17T20:37:52.961Z,64.36
2023-06-17T20:40:19.595Z,64.41
2023-06-17T20:42:46.263Z,64.78
2023-06-17T20:45:12.694Z,64.94
2023-06-17T20:47:39.235Z,65.31
2023-06-17T20:50:06.296Z,65.29
2023-06-17T20:52:32.776Z,65.38
2023-06-17T20:54:59.257Z,66.00
2023-06-17T20:57:25.785Z,66.15
2023-06-17T20:59:53.791Z,66.08
2023-06-17T21:02:20.685Z,66.44
2023-06-17T21:04:47.372Z,66.16
2023-06-17T21:07:13.882Z,66.40
2023-06-17T21:09:40.877Z,66.77
2023-06-17T21:12:07.653Z,66.98
2023-06-17T21:14:34.125Z,67.11
2023-06-17T21:17:00.880Z,67.43
2023-06-17T21:19:29.847Z,67.47
2023-06-17T21:21:57.973Z,67.46
2023-06-17T21:24:24.557Z,67.73
2023-06-17T21:26:51.018Z,68.05
2023-06-17T21:29:17.600Z,68.11
2023-06-17T21:31:44.203Z,68.25
2023-06-17T21:34:10.686Z,68.57
2023-06-17T21:36:37.276Z,68.63
2023-06-17T21:39:03.929Z,68.98
2023-06-17T21:41:30.473Z,68.96
2023-06-17T21:43:57.020Z,68.73
2023-06-17T21:46:29.616Z,68.90
2023-06-17T21:48:56.441Z,68.58
2023-06-17T21:51:23.386Z,68.79
2023-06-17T21:53:49.858Z,69.40
2023-06-17T21:56:16.428Z,69.27
2023-06-17T21:58:42.886Z,69.52
2023-06-17T22:01:09.341Z,69.77
2023-06-17T22:03:35.967Z,69.92
2023-06-17T22:06:03.466Z,70.03
2023-06-17T22:08:41.780Z,70.00
2023-06-17T22:11:16.091Z,70.20
2023-06-17T22:13:42.630Z,70.57
2023-06-17T22:16:09.427Z,70.32
2023-06-17T22:18:42.284Z,70.15
2023-06-17T22:21:08.783Z,70.42
2023-06-17T22:26:49.831Z,70.68
2023-06-17T22:29:22.405Z,70.68
2023-06-17T22:31:49.113Z,70.87
2023-06-17T22:34:15.593Z,70.88
2023-06-17T22:36:42.080Z,70.96
2023-06-17T22:39:09.577Z,71.05
2023-06-17T22:41:36.721Z,70.98
2023-06-17T22:44:03.589Z,71.44
2023-06-17T22:50:24.116Z,71.27
2023-06-17T22:53:23.024Z,71.45
2023-06-17T22:56:31.832Z,72.03
2023-06-17T22:59:13.198Z,72.18
2023-06-17T23:01:55.915Z,72.16
2023-06-17T23:04:39.381Z,72.17
2023-06-17T23:07:19.326Z,72.41
2023-06-17T23:09:50.194Z,72.12
2023-06-17T23:12:22.697Z,72.55
2023-06-17T23:41:30.707Z,73.10
2023-06-17T23:43:57.139Z,73.05
2023-06-17T23:46:27.747Z,73.30
2023-06-17T23:48:54.822Z,73.85
2023-06-17T23:51:21.729Z,73.75
2023-06-17T23:53:48.506Z,73.68
2023-06-17T23:56:15.028Z,74.16
2023-06-17T23:58:41.488Z,73.90
